Impacts METAR Board INFO
IDs:

KJFK - New York/Kennedy Int, NY, US

Updated at: 0803 UTC 15 Dec 2017
Potential Impact None Slight Moderate High
Time14/20Z 14/21Z 14/22Z 14/23Z 15/00Z 15/01Z 15/02Z 15/03Z 15/04Z 15/05Z 15/06Z 15/07Z 15/08Z
VIS10 10 10 10 10 10 10 10 10 10 10 10 10
CIG-- -- -- -- 250 220 250 230 230 250 250 -- --
CoverSCTFEWFEWSCTBKNBKNBKNBKNBKNBKNBKNSCTSCT
FltCatVFRVFRVFRVFRVFRVFRVFRVFRVFRVFRVFRVFRVFR
WX--------------------------
WDir280320310310310310320320320320310300330
WSpd16 16 16 14 15 12 13 10 11 11 9 8 11
WGst24 -- -- 24 -- -- -- -- -- -- -- -- --
Raw hourly METARs
KJFK 141951Z 28016G24KT 10SM SCT048 00/M09 A2986 RMK AO2 SLP111 T00001094
KJFK 142051Z 32016KT 10SM FEW048 M02/M11 A2989 RMK AO2 PK WND 28027/2023 SLP120 T10171106 51037
KJFK 142151Z 31016KT 10SM FEW048 FEW250 M02/M12 A2994 RMK AO2 SLP138 T10221117
KJFK 142251Z 31014G24KT 10SM FEW048 SCT250 M02/M13 A2998 RMK AO2 SLP151 T10221128
KJFK 142351Z 31015KT 10SM BKN250 M03/M13 A3002 RMK AO2 SLP166 T10281128 10000 21028 51046
KJFK 150051Z 31012KT 10SM BKN220 M03/M13 A3005 RMK AO2 SLP176 T10331133
KJFK 150151Z 32013KT 10SM SCT210 BKN250 M04/M14 A3008 RMK AO2 SLP184 T10391139
KJFK 150251Z 32010KT 10SM BKN230 M04/M14 A3010 RMK AO2 SLP191 T10441139 51025
KJFK 150351Z 32011KT 10SM BKN230 M04/M14 A3010 RMK AO2 SLP194 T10441144
KJFK 150451Z 32011KT 10SM BKN250 M05/M15 A3011 RMK AO2 SLP195 T10501150 400001050
KJFK 150551Z 31009KT 10SM BKN250 M06/M14 A3011 RMK AO2 SLP196 T10561144 11028 21056 51005
KJFK 150651Z 30008KT 10SM SCT250 M06/M14 A3012 RMK AO2 SLP200 T10611139
KJFK 150751Z 33011KT 10SM SCT250 M06/M14 A3013 RMK AO2 SLP200 T10611139